Time;durP1;ratioP1;P1;durP2;ratioP2;P2;SDS_P1;SDS_P2;PMS_P1;PMS_P2;Temp;Humidity;BMP_temperature;BMP_pressure;BME280_temperature;BME280_humidity;BME280_pressure;Samples;Min_cycle;Max_cycle;Signal;HPM_P1;HPM_P2
2022/10/08 00:00:27;;;;;;;;;;;17.00;99.90;;;;;;1035145;28;19906;-68
2022/10/08 00:00:59;;;;;;;;;;;17.00;99.90;;;;;;1035809;28;19914;-69
2022/10/08 00:01:30;;;;;;;;;;;17.00;99.90;;;;;;1035406;28;19972;-68
2022/10/08 00:02:00;;;;;;;;;;;17.00;99.90;;;;;;1035475;28;19905;-70
2022/10/08 00:02:30;;;;;;;;;;;17.00;99.90;;;;;;1035435;28;19905;-69
2022/10/08 00:03:01;;;;;;;;;;;17.00;99.90;;;;;;1035330;28;19955;-69
2022/10/08 00:03:33;;;;;;;;;;;17.00;99.90;;;;;;1035917;28;19913;-69
2022/10/08 00:04:03;;;;;;;;;;;17.00;99.90;;;;;;1036092;28;19964;-68
2022/10/08 00:04:34;;;;;;;;;;;17.00;99.90;;;;;;1035615;28;19960;-69
2022/10/08 00:05:05;;;;;;;;;;;17.00;99.90;;;;;;1035318;28;19913;-68
2022/10/08 00:05:36;;;;;;;;;;;17.00;99.90;;;;;;1035435;28;19902;-69
2022/10/08 00:06:10;;;;;;;;;;;17.00;99.90;;;;;;1035376;28;19905;-68
2022/10/08 00:06:41;;;;;;;;;;;17.10;99.90;;;;;;1035230;28;19912;-68
2022/10/08 00:07:11;;;;;;;;;;;17.10;99.90;;;;;;1035819;28;19913;-69
2022/10/08 00:07:44;;;;;;;;;;;17.10;99.90;;;;;;1035565;28;20008;-69
2022/10/08 00:08:15;;;;;;;;;;;17.10;99.90;;;;;;1035723;28;19912;-68
2022/10/08 00:08:49;;;;;;;;;;;17.10;99.90;;;;;;1035420;28;19913;-69
2022/10/08 00:09:20;;;;;;;;;;;17.10;99.90;;;;;;1035907;28;19905;-68
2022/10/08 00:09:50;;;;;;;;;;;17.10;99.90;;;;;;1035263;28;19906;-69
2022/10/08 00:10:21;;;;;;;;;;;17.10;99.90;;;;;;1035640;28;19971;-69
2022/10/08 00:10:55;;;;;;;;;;;17.00;99.90;;;;;;1035565;28;19966;-68
2022/10/08 00:11:27;;;;;;;;;;;17.00;99.90;;;;;;1035462;28;20000;-69
2022/10/08 00:11:58;;;;;;;;;;;17.10;99.90;;;;;;1035455;28;19905;-68
2022/10/08 00:12:28;;;;;;;;;;;17.10;99.90;;;;;;1031148;28;19917;-70
2022/10/08 00:12:59;;;;;;;;;;;17.00;99.90;;;;;;1034383;28;20694;-68
2022/10/08 00:13:39;;;;;;;;;;;17.10;99.90;;;;;;1031504;28;19975;-68
2022/10/08 00:14:10;;;;;;;;;;;17.10;99.90;;;;;;1035166;28;19909;-68
2022/10/08 00:14:40;;;;;;;;;;;17.10;99.90;;;;;;1035461;28;19952;-68
2022/10/08 00:15:10;;;;;;;;;;;17.10;99.90;;;;;;1035141;28;20004;-69
2022/10/08 00:15:41;;;;;;;;;;;17.10;99.90;;;;;;1035416;28;19910;-68
2022/10/08 00:16:28;;;;;;;;;;;17.10;99.90;;;;;;1031210;28;19917;-69
2022/10/08 00:16:59;;;;;;;;;;;17.10;99.90;;;;;;1035430;28;19909;-68
2022/10/08 00:17:29;;;;;;;;;;;17.10;99.90;;;;;;1035290;28;19917;-69
2022/10/08 00:17:59;;;;;;;;;;;17.10;99.90;;;;;;1035137;28;19916;-69
2022/10/08 00:18:30;;;;;;;;;;;17.10;99.90;;;;;;1034973;28;20000;-68
2022/10/08 00:19:03;;;;;;;;;;;17.10;99.90;;;;;;1035528;28;20008;-69
2022/10/08 00:19:33;;;;;;;;;;;17.10;99.90;;;;;;1035270;28;19916;-69
2022/10/08 00:20:04;;;;;;;;;;;17.10;99.90;;;;;;1035304;28;19909;-70
2022/10/08 00:20:35;;;;;;;;;;;17.10;99.90;;;;;;1035183;28;19929;-69
2022/10/08 00:21:06;;;;;;;;;;;17.10;99.90;;;;;;1034848;28;19913;-69
2022/10/08 00:21:38;;;;;;;;;;;17.10;99.90;;;;;;1035132;28;20457;-69
2022/10/08 00:22:08;;;;;;;;;;;17.10;99.90;;;;;;1031063;28;19909;-68
2022/10/08 00:22:40;;;;;;;;;;;17.10;99.90;;;;;;1031467;28;19905;-69
2022/10/08 00:23:10;;;;;;;;;;;17.10;99.90;;;;;;1035141;28;19917;-68
2022/10/08 00:23:41;;;;;;;;;;;17.10;99.90;;;;;;1035273;28;20451;-68
2022/10/08 00:24:13;;;;;;;;;;;17.10;99.90;;;;;;1035640;28;20068;-68
2022/10/08 00:24:45;;;;;;;;;;;17.10;99.90;;;;;;1035601;28;19929;-70
2022/10/08 00:25:15;;;;;;;;;;;17.10;99.90;;;;;;1035408;28;20708;-68
2022/10/08 00:25:46;;;;;;;;;;;17.10;99.90;;;;;;1034955;28;20663;-70
2022/10/08 00:26:17;;;;;;;;;;;17.10;99.90;;;;;;1035585;28;19906;-69
2022/10/08 00:26:48;;;;;;;;;;;17.10;99.90;;;;;;1035186;28;19928;-68
2022/10/08 00:27:22;;;;;;;;;;;17.10;99.90;;;;;;1035804;28;19913;-69
2022/10/08 00:27:53;;;;;;;;;;;17.10;99.90;;;;;;1035281;28;19912;-69
2022/10/08 00:28:23;;;;;;;;;;;17.10;99.90;;;;;;1035718;28;19912;-68
2022/10/08 00:28:55;;;;;;;;;;;17.10;99.90;;;;;;1035579;28;20581;-68
2022/10/08 00:29:25;;;;;;;;;;;17.10;99.90;;;;;;1035422;28;19905;-68
2022/10/08 00:29:56;;;;;;;;;;;17.10;99.90;;;;;;1035455;28;19905;-68
2022/10/08 00:30:26;;;;;;;;;;;17.10;99.90;;;;;;1035386;28;20244;-69
2022/10/08 00:30:57;;;;;;;;;;;17.10;99.90;;;;;;1035364;28;19909;-69
2022/10/08 00:31:31;;;;;;;;;;;17.10;99.90;;;;;;1035158;28;19913;-68
2022/10/08 00:32:01;;;;;;;;;;;17.10;99.90;;;;;;1035139;28;19909;-68
2022/10/08 00:32:32;;;;;;;;;;;17.10;99.90;;;;;;1035400;28;19909;-69
2022/10/08 00:33:02;;;;;;;;;;;17.10;99.90;;;;;;1035239;28;20412;-68
2022/10/08 00:33:35;;;;;;;;;;;17.10;99.90;;;;;;1035586;28;19909;-68
2022/10/08 00:34:09;;;;;;;;;;;17.10;99.90;;;;;;1035567;28;19916;-69
2022/10/08 00:34:42;;;;;;;;;;;17.10;99.90;;;;;;1035581;28;19939;-68
2022/10/08 00:35:12;;;;;;;;;;;17.10;99.90;;;;;;1035158;28;19916;-69
2022/10/08 00:35:42;;;;;;;;;;;17.10;99.90;;;;;;1035168;28;19909;-70
2022/10/08 00:36:13;;;;;;;;;;;17.10;99.90;;;;;;1031286;28;19912;-69
2022/10/08 00:36:44;;;;;;;;;;;17.10;99.90;;;;;;1031637;28;20020;-69
2022/10/08 00:37:14;;;;;;;;;;;17.10;99.90;;;;;;1035508;28;19909;-69
2022/10/08 00:37:45;;;;;;;;;;;17.10;99.90;;;;;;1035473;28;19967;-68
2022/10/08 00:38:15;;;;;;;;;;;17.10;99.90;;;;;;1035910;28;19909;-68
2022/10/08 00:38:46;;;;;;;;;;;17.10;99.90;;;;;;1035791;28;19917;-68
2022/10/08 00:39:17;;;;;;;;;;;17.10;99.90;;;;;;1035639;28;20427;-67
2022/10/08 00:39:47;;;;;;;;;;;17.10;99.90;;;;;;1035593;28;19916;-68
2022/10/08 00:40:18;;;;;;;;;;;17.10;99.90;;;;;;1035796;28;19916;-67
2022/10/08 00:40:48;;;;;;;;;;;17.10;99.90;;;;;;1035760;28;19916;-69
2022/10/08 00:41:20;;;;;;;;;;;17.10;99.90;;;;;;1035302;28;19918;-68
2022/10/08 00:41:52;;;;;;;;;;;17.10;99.90;;;;;;1035572;28;20020;-67
2022/10/08 00:42:23;;;;;;;;;;;17.10;99.90;;;;;;1035698;28;19910;-69
2022/10/08 00:42:54;;;;;;;;;;;17.10;99.90;;;;;;1035952;28;19913;-68
2022/10/08 00:43:54;;;;;;;;;;;17.10;99.90;;;;;;1035488;28;19921;-69
2022/10/08 00:44:43;;;;;;;;;;;17.10;99.90;;;;;;1033203;28;19909;-69
2022/10/08 00:45:14;;;;;;;;;;;17.10;99.90;;;;;;1031220;28;20477;-69
2022/10/08 00:45:46;;;;;;;;;;;17.10;99.90;;;;;;1030169;28;20439;-68
2022/10/08 00:46:18;;;;;;;;;;;17.10;99.90;;;;;;1034305;28;20348;-70
2022/10/08 00:46:49;;;;;;;;;;;17.10;99.90;;;;;;1035136;28;19909;-68
2022/10/08 00:47:30;;;;;;;;;;;17.00;99.90;;;;;;1035466;28;19909;-69
2022/10/08 00:48:00;;;;;;;;;;;17.00;99.90;;;;;;1035925;28;19916;-68
2022/10/08 00:48:31;;;;;;;;;;;17.00;99.90;;;;;;1035848;28;19912;-69
2022/10/08 00:49:03;;;;;;;;;;;17.00;99.90;;;;;;1035651;28;19936;-67
2022/10/08 00:49:34;;;;;;;;;;;17.00;99.90;;;;;;1035692;28;19909;-69
2022/10/08 00:50:07;;;;;;;;;;;17.00;99.90;;;;;;1035468;28;19909;-68
2022/10/08 00:50:38;;;;;;;;;;;17.00;99.90;;;;;;1035152;28;20503;-67
2022/10/08 00:51:09;;;;;;;;;;;17.00;99.90;;;;;;1035480;28;19912;-68
2022/10/08 00:51:42;;;;;;;;;;;17.00;99.90;;;;;;1035399;28;20000;-69
2022/10/08 00:52:13;;;;;;;;;;;17.00;99.90;;;;;;1035608;28;19905;-67
2022/10/08 00:52:49;;;;;;;;;;;17.00;99.90;;;;;;1034982;28;19916;-70
2022/10/08 00:53:20;;;;;;;;;;;17.00;99.90;;;;;;1035684;28;19905;-68
2022/10/08 00:53:51;;;;;;;;;;;17.00;99.90;;;;;;1035422;28;19933;-68
2022/10/08 00:54:22;;;;;;;;;;;17.00;99.90;;;;;;1035612;28;19995;-69
2022/10/08 00:54:52;;;;;;;;;;;17.00;99.90;;;;;;1035192;28;19991;-68
2022/10/08 00:55:25;;;;;;;;;;;17.00;99.90;;;;;;1035670;28;19902;-69
2022/10/08 00:55:56;;;;;;;;;;;17.00;99.90;;;;;;1035037;28;19912;-69
2022/10/08 00:56:30;;;;;;;;;;;17.00;99.90;;;;;;1036056;28;19933;-68
2022/10/08 00:57:00;;;;;;;;;;;17.00;99.90;;;;;;1035688;28;19914;-69
2022/10/08 00:57:34;;;;;;;;;;;16.90;99.90;;;;;;1035868;28;19909;-70
2022/10/08 00:58:10;;;;;;;;;;;16.90;99.90;;;;;;1035415;28;19909;-69
2022/10/08 00:58:42;;;;;;;;;;;16.90;99.90;;;;;;1036030;28;19905;-68
2022/10/08 00:59:12;;;;;;;;;;;16.90;99.90;;;;;;1035016;28;20007;-68
2022/10/08 00:59:43;;;;;;;;;;;16.90;99.90;;;;;;1033241;28;19932;-68
2022/10/08 01:00:16;;;;;;;;;;;16.90;99.90;;;;;;1030986;28;19970;-68
2022/10/08 01:00:47;;;;;;;;;;;16.90;99.90;;;;;;1031674;28;19917;-69
2022/10/08 01:01:18;;;;;;;;;;;16.90;99.90;;;;;;1035436;28;19992;-69
2022/10/08 01:01:49;;;;;;;;;;;16.90;99.90;;;;;;1035908;28;19909;-68
2022/10/08 01:02:19;;;;;;;;;;;16.90;99.90;;;;;;1035573;28;19905;-68
2022/10/08 01:02:50;;;;;;;;;;;16.90;99.90;;;;;;1035306;28;20002;-68
2022/10/08 01:03:20;;;;;;;;;;;16.90;99.90;;;;;;1035061;28;19905;-68
2022/10/08 01:03:51;;;;;;;;;;;16.90;99.90;;;;;;1035598;28;19917;-68
2022/10/08 01:04:21;;;;;;;;;;;16.90;99.90;;;;;;1035361;28;20440;-68
2022/10/08 01:04:52;;;;;;;;;;;16.90;99.90;;;;;;1034945;28;19945;-69
2022/10/08 01:05:45;;;;;;;;;;;16.90;99.90;;;;;;1035479;28;19906;-68
2022/10/08 01:06:26;;;;;;;;;;;16.90;99.90;;;;;;1027035;28;20000;-69
2022/10/08 01:06:57;;;;;;;;;;;16.90;99.90;;;;;;1035439;28;20257;-68
2022/10/08 01:07:27;;;;;;;;;;;16.90;99.90;;;;;;1035159;28;20506;-68
2022/10/08 01:08:02;;;;;;;;;;;16.90;99.90;;;;;;1035220;28;19970;-68
2022/10/08 01:08:36;;;;;;;;;;;16.90;99.90;;;;;;1035387;28;19912;-68
2022/10/08 01:09:19;;;;;;;;;;;16.90;99.90;;;;;;1035484;28;19984;-67
2022/10/08 01:10:02;;;;;;;;;;;16.90;99.90;;;;;;1035332;28;19952;-67
2022/10/08 01:10:47;;;;;;;;;;;17.00;99.90;;;;;;1035800;28;20050;-68
2022/10/08 01:11:35;;;;;;;;;;;16.90;99.90;;;;;;1035319;28;20008;-68
2022/10/08 01:12:08;;;;;;;;;;;16.90;99.90;;;;;;1031041;28;19916;-68
2022/10/08 01:12:43;;;;;;;;;;;16.90;99.90;;;;;;1032274;28;20001;-68
2022/10/08 01:13:26;;;;;;;;;;;16.90;99.90;;;;;;1037983;28;19909;-67
2022/10/08 01:14:15;;;;;;;;;;;16.90;99.90;;;;;;1035087;28;20048;-68
2022/10/08 01:14:55;;;;;;;;;;;17.00;99.90;;;;;;1035366;28;19967;-68
2022/10/08 01:16:01;;;;;;;;;;;16.90;99.90;;;;;;1035146;28;20021;-68
2022/10/08 01:16:43;;;;;;;;;;;16.90;99.90;;;;;;1018991;29;19921;-67
2022/10/08 01:17:19;;;;;;;;;;;16.90;99.90;;;;;;1021168;29;19980;-69
2022/10/08 01:18:09;;;;;;;;;;;16.90;99.90;;;;;;1018711;29;19939;-68
2022/10/08 01:18:44;;;;;;;;;;;16.90;99.90;;;;;;1015071;29;19907;-68
2022/10/08 01:19:15;;;;;;;;;;;16.70;99.90;;;;;;1023991;28;19911;-68
2022/10/08 01:19:58;;;;;;;;;;;16.90;99.90;;;;;;1033753;28;19992;-69
2022/10/08 01:20:28;;;;;;;;;;;16.80;99.90;;;;;;1035537;28;19910;-68
2022/10/08 01:21:12;;;;;;;;;;;16.80;99.90;;;;;;1034917;28;19951;-68
2022/10/08 01:21:57;;;;;;;;;;;16.80;99.90;;;;;;1033819;28;20340;-68
2022/10/08 01:22:39;;;;;;;;;;;16.80;99.90;;;;;;1027253;28;20274;-68
2022/10/08 01:23:21;;;;;;;;;;;16.80;99.90;;;;;;1031175;28;19909;-67
2022/10/08 01:23:51;;;;;;;;;;;16.80;99.90;;;;;;1032204;28;19909;-67
2022/10/08 01:25:39;;;;;;;;;;;16.80;99.90;;;;;;1035100;28;20000;-69
2022/10/08 01:26:29;;;;;;;;;;;16.80;99.90;;;;;;1035470;28;19921;-67
2022/10/08 01:27:03;;;;;;;;;;;16.80;99.90;;;;;;1035444;28;19916;-67
2022/10/08 01:27:51;;;;;;;;;;;16.80;99.90;;;;;;1035120;28;19920;-68
2022/10/08 01:28:41;;;;;;;;;;;16.80;99.90;;;;;;1035286;28;19906;-70
2022/10/08 01:29:21;;;;;;;;;;;16.80;99.90;;;;;;1031488;28;20394;-68
2022/10/08 01:29:52;;;;;;;;;;;16.80;99.90;;;;;;1035344;28;19992;-68
2022/10/08 01:30:23;;;;;;;;;;;16.80;99.90;;;;;;1035056;28;19913;-67
2022/10/08 01:31:00;;;;;;;;;;;16.70;99.90;;;;;;1032304;28;19910;-69
2022/10/08 01:31:36;;;;;;;;;;;16.70;99.90;;;;;;1035253;28;19995;-67
2022/10/08 01:32:10;;;;;;;;;;;16.70;99.90;;;;;;1034895;28;20012;-67
2022/10/08 01:32:42;;;;;;;;;;;16.70;99.90;;;;;;1035449;28;19917;-69
2022/10/08 01:33:34;;;;;;;;;;;16.70;99.90;;;;;;1035510;28;19909;-67
2022/10/08 01:34:14;;;;;;;;;;;16.70;99.90;;;;;;1035523;28;20670;-67
2022/10/08 01:34:46;;;;;;;;;;;16.70;99.90;;;;;;1035319;28;19909;-67
2022/10/08 01:35:19;;;;;;;;;;;16.70;99.90;;;;;;1035463;28;19913;-68
2022/10/08 01:35:55;;;;;;;;;;;16.70;99.90;;;;;;1035383;28;19916;-67
2022/10/08 01:36:27;;;;;;;;;;;16.70;99.90;;;;;;1035350;28;19922;-68
2022/10/08 01:36:59;;;;;;;;;;;16.70;99.90;;;;;;1034767;28;20047;-68
2022/10/08 01:37:32;;;;;;;;;;;16.70;99.90;;;;;;1035076;28;19909;-68
2022/10/08 01:38:05;;;;;;;;;;;16.70;99.90;;;;;;1034921;28;19964;-67
2022/10/08 01:38:39;;;;;;;;;;;16.70;99.90;;;;;;1035250;28;20013;-68
2022/10/08 01:39:16;;;;;;;;;;;16.70;99.90;;;;;;1035247;28;19973;-67
2022/10/08 01:39:47;;;;;;;;;;;16.70;99.90;;;;;;1035401;28;20402;-67
2022/10/08 01:40:19;;;;;;;;;;;16.70;99.90;;;;;;1035569;28;20379;-68
2022/10/08 01:40:51;;;;;;;;;;;16.70;99.90;;;;;;1035495;28;19971;-67
2022/10/08 01:41:23;;;;;;;;;;;16.70;99.90;;;;;;1035458;28;20280;-67
2022/10/08 01:41:57;;;;;;;;;;;16.70;99.90;;;;;;1035442;28;19914;-68
2022/10/08 01:42:27;;;;;;;;;;;16.70;99.90;;;;;;1035149;28;19967;-67
2022/10/08 01:42:59;;;;;;;;;;;16.70;99.90;;;;;;1035727;28;19909;-67
2022/10/08 01:43:32;;;;;;;;;;;16.70;99.90;;;;;;1035553;28;19916;-68
2022/10/08 01:44:06;;;;;;;;;;;16.70;99.90;;;;;;1034778;28;19909;-67
2022/10/08 01:44:36;;;;;;;;;;;16.70;99.90;;;;;;1035089;28;19986;-67
2022/10/08 01:45:11;;;;;;;;;;;16.70;99.90;;;;;;1035036;28;19964;-68
2022/10/08 01:45:44;;;;;;;;;;;16.70;99.90;;;;;;1035235;28;19917;-67
2022/10/08 01:46:17;;;;;;;;;;;16.70;99.90;;;;;;1035688;28;19960;-67
2022/10/08 01:46:49;;;;;;;;;;;16.70;99.90;;;;;;1035211;28;19909;-67
2022/10/08 01:47:22;;;;;;;;;;;16.70;99.90;;;;;;1035254;28;19915;-66
2022/10/08 01:47:53;;;;;;;;;;;16.70;99.90;;;;;;1034988;28;20299;-68
2022/10/08 01:48:28;;;;;;;;;;;16.70;99.90;;;;;;1035159;28;19916;-68
2022/10/08 01:49:01;;;;;;;;;;;16.70;99.90;;;;;;1034968;28;20320;-67
2022/10/08 01:49:36;;;;;;;;;;;16.70;99.90;;;;;;1034934;28;20344;-67
2022/10/08 01:50:11;;;;;;;;;;;16.80;99.90;;;;;;1031095;28;19917;-67
2022/10/08 01:50:45;;;;;;;;;;;16.80;99.90;;;;;;1030866;28;19905;-69
2022/10/08 01:51:19;;;;;;;;;;;16.80;99.90;;;;;;1031122;28;19905;-67
2022/10/08 01:51:51;;;;;;;;;;;16.80;99.90;;;;;;1032386;28;19905;-68
2022/10/08 01:52:24;;;;;;;;;;;16.80;99.90;;;;;;1034959;28;19941;-67
2022/10/08 01:52:57;;;;;;;;;;;16.80;99.90;;;;;;1035025;28;19975;-67
2022/10/08 01:53:32;;;;;;;;;;;16.80;99.90;;;;;;1035123;28;19908;-68
2022/10/08 01:54:05;;;;;;;;;;;16.80;99.90;;;;;;1034884;28;19937;-67
2022/10/08 01:54:36;;;;;;;;;;;16.70;99.90;;;;;;1034944;28;19905;-68
2022/10/08 01:55:11;;;;;;;;;;;16.70;99.90;;;;;;1034878;28;20287;-66
2022/10/08 01:55:44;;;;;;;;;;;16.70;99.90;;;;;;1036892;28;19994;-68
2022/10/08 01:56:17;;;;;;;;;;;16.70;99.90;;;;;;1036222;28;19992;-66
2022/10/08 01:56:48;;;;;;;;;;;16.70;99.90;;;;;;1038955;28;19905;-66
2022/10/08 01:57:19;;;;;;;;;;;16.70;99.90;;;;;;1038855;28;19909;-67
2022/10/08 01:57:50;;;;;;;;;;;16.70;99.90;;;;;;1037490;28;19912;-66
2022/10/08 01:58:26;;;;;;;;;;;16.70;99.90;;;;;;1034878;28;19917;-66
2022/10/08 01:59:00;;;;;;;;;;;16.70;99.90;;;;;;1035153;28;19912;-68
2022/10/08 01:59:38;;;;;;;;;;;16.70;99.90;;;;;;1035249;28;19902;-66
2022/10/08 02:00:10;;;;;;;;;;;16.70;99.90;;;;;;1034979;28;20264;-67
2022/10/08 02:00:41;;;;;;;;;;;16.70;99.90;;;;;;1035415;28;19905;-67
2022/10/08 02:01:14;;;;;;;;;;;16.70;99.90;;;;;;1035012;28;19906;-67
2022/10/08 02:02:04;;;;;;;;;;;16.70;99.90;;;;;;1035223;28;19905;-67
2022/10/08 02:02:35;;;;;;;;;;;16.70;99.90;;;;;;1034580;28;19905;-67
2022/10/08 02:03:05;;;;;;;;;;;16.70;99.90;;;;;;1035080;28;19906;-66
2022/10/08 02:03:36;;;;;;;;;;;16.70;99.90;;;;;;1034787;28;19905;-67
2022/10/08 02:04:55;;;;;;;;;;;16.70;99.90;;;;;;1030718;28;19995;-66
2022/10/08 02:05:29;;;;;;;;;;;16.70;99.90;;;;;;1030555;28;19963;-67
2022/10/08 02:06:01;;;;;;;;;;;16.70;99.90;;;;;;1033966;28;20378;-67
2022/10/08 02:06:34;;;;;;;;;;;16.70;99.90;;;;;;1036717;28;19906;-67
2022/10/08 02:07:07;;;;;;;;;;;16.70;99.90;;;;;;1037937;28;19909;-68
2022/10/08 02:07:41;;;;;;;;;;;16.70;99.90;;;;;;1035069;28;19992;-67
2022/10/08 02:08:12;;;;;;;;;;;16.70;99.90;;;;;;1034687;28;19905;-66
2022/10/08 02:08:42;;;;;;;;;;;16.70;99.90;;;;;;1034968;28;20280;-66
2022/10/08 02:09:13;;;;;;;;;;;16.70;99.90;;;;;;1033577;28;20345;-67
2022/10/08 02:09:45;;;;;;;;;;;16.70;99.90;;;;;;1034674;28;20444;-68
2022/10/08 02:10:17;;;;;;;;;;;16.70;99.90;;;;;;1034665;28;19984;-66
2022/10/08 02:10:48;;;;;;;;;;;16.70;99.90;;;;;;1034820;28;19998;-66
2022/10/08 02:11:19;;;;;;;;;;;16.70;99.90;;;;;;1031135;28;19914;-66
2022/10/08 02:11:50;;;;;;;;;;;16.70;99.90;;;;;;1031159;28;19905;-66
2022/10/08 02:12:23;;;;;;;;;;;16.60;99.90;;;;;;1031359;28;19913;-67
2022/10/08 02:12:54;;;;;;;;;;;16.60;99.90;;;;;;1036598;28;20260;-66
2022/10/08 02:13:24;;;;;;;;;;;16.60;99.90;;;;;;1035408;28;20257;-67
2022/10/08 02:13:55;;;;;;;;;;;16.60;99.90;;;;;;1034550;28;19952;-66
2022/10/08 02:14:26;;;;;;;;;;;16.60;99.90;;;;;;1035012;28;20356;-66
2022/10/08 02:14:57;;;;;;;;;;;16.60;99.90;;;;;;1034614;28;19952;-66
2022/10/08 02:15:30;;;;;;;;;;;16.60;99.90;;;;;;1030915;28;20498;-67
2022/10/08 02:16:10;;;;;;;;;;;16.60;99.90;;;;;;1034640;28;20356;-66
2022/10/08 02:16:42;;;;;;;;;;;16.60;99.90;;;;;;1034677;28;19905;-67
2022/10/08 02:17:13;;;;;;;;;;;16.60;99.90;;;;;;1034708;28;19909;-68
2022/10/08 02:17:49;;;;;;;;;;;16.60;99.90;;;;;;1034732;28;19907;-67
2022/10/08 02:18:26;;;;;;;;;;;16.60;99.90;;;;;;1034637;28;19913;-67
2022/10/08 02:19:06;;;;;;;;;;;16.60;99.90;;;;;;1034863;28;20016;-67
2022/10/08 02:19:55;;;;;;;;;;;16.60;99.90;;;;;;1030842;28;20413;-67
2022/10/08 02:20:34;;;;;;;;;;;16.60;99.90;;;;;;1038207;28;20534;-67
2022/10/08 02:21:11;;;;;;;;;;;16.60;99.90;;;;;;1037512;28;19905;-67
2022/10/08 02:21:43;;;;;;;;;;;16.60;99.90;;;;;;1034818;28;19901;-66
2022/10/08 02:22:15;;;;;;;;;;;16.70;99.90;;;;;;1032587;28;19956;-67
2022/10/08 02:23:04;;;;;;;;;;;16.70;99.90;;;;;;1034434;28;19912;-67
2022/10/08 02:23:42;;;;;;;;;;;16.70;99.90;;;;;;1034961;28;19902;-67
2022/10/08 02:24:17;;;;;;;;;;;16.70;99.90;;;;;;1034790;28;19948;-67
2022/10/08 02:24:52;;;;;;;;;;;16.70;99.90;;;;;;1034982;28;19928;-67
2022/10/08 02:25:41;;;;;;;;;;;16.70;99.90;;;;;;1034732;28;20370;-68
2022/10/08 02:26:15;;;;;;;;;;;16.70;99.90;;;;;;1034726;28;19929;-67
2022/10/08 02:26:48;;;;;;;;;;;16.70;99.90;;;;;;1034368;28;20397;-67
2022/10/08 02:27:24;;;;;;;;;;;16.70;99.90;;;;;;1034539;28;19947;-66
2022/10/08 02:28:20;;;;;;;;;;;16.70;99.90;;;;;;1034620;28;20709;-66
2022/10/08 02:29:09;;;;;;;;;;;16.70;99.90;;;;;;1032274;28;19941;-67
2022/10/08 02:30:03;;;;;;;;;;;16.70;99.90;;;;;;1034871;28;19909;-66
2022/10/08 02:30:37;;;;;;;;;;;16.70;99.90;;;;;;1026655;28;20358;-67
2022/10/08 02:31:14;;;;;;;;;;;16.70;99.90;;;;;;1034831;28;19912;-66
2022/10/08 02:31:48;;;;;;;;;;;16.70;99.90;;;;;;1034589;28;19956;-66
2022/10/08 02:32:22;;;;;;;;;;;16.70;99.90;;;;;;1035375;28;19905;-68
2022/10/08 02:32:56;;;;;;;;;;;16.70;99.90;;;;;;1034645;28;19905;-67
2022/10/08 02:33:31;;;;;;;;;;;16.80;99.90;;;;;;1030720;28;19905;-66
2022/10/08 02:34:04;;;;;;;;;;;16.80;99.90;;;;;;1030683;28;20387;-67
2022/10/08 02:34:37;;;;;;;;;;;16.80;99.90;;;;;;1032211;28;20346;-66
2022/10/08 02:35:30;;;;;;;;;;;16.80;99.90;;;;;;1034829;28;20003;-65
2022/10/08 02:36:03;;;;;;;;;;;16.80;99.90;;;;;;1034330;28;19988;-66
2022/10/08 02:36:35;;;;;;;;;;;16.80;99.90;;;;;;1030749;28;20518;-66
2022/10/08 02:37:11;;;;;;;;;;;16.80;99.90;;;;;;1030667;28;19915;-66
2022/10/08 02:37:49;;;;;;;;;;;16.80;99.90;;;;;;1030762;28;19909;-67
2022/10/08 02:38:21;;;;;;;;;;;16.70;99.90;;;;;;1035224;28;19913;-65
2022/10/08 02:38:53;;;;;;;;;;;16.80;99.90;;;;;;1035202;28;19948;-66
2022/10/08 02:39:25;;;;;;;;;;;16.70;99.90;;;;;;1034984;28;19967;-68
2022/10/08 02:40:01;;;;;;;;;;;16.70;99.90;;;;;;1035068;28;19948;-66
2022/10/08 02:40:33;;;;;;;;;;;16.70;99.90;;;;;;1034908;28;20043;-66
2022/10/08 02:41:05;;;;;;;;;;;16.70;99.90;;;;;;1034900;28;19905;-68
2022/10/08 02:41:38;;;;;;;;;;;16.70;99.90;;;;;;1031160;28;19905;-67
2022/10/08 02:42:10;;;;;;;;;;;16.70;99.90;;;;;;1030866;28;20008;-67
2022/10/08 02:42:45;;;;;;;;;;;16.70;99.90;;;;;;1031337;28;19906;-67
2022/10/08 02:43:19;;;;;;;;;;;16.70;99.90;;;;;;1034535;28;19906;-66
2022/10/08 02:43:50;;;;;;;;;;;16.70;99.90;;;;;;1035191;28;19912;-66
2022/10/08 02:44:25;;;;;;;;;;;16.70;99.90;;;;;;1035130;28;19905;-66
2022/10/08 02:45:17;;;;;;;;;;;16.70;99.90;;;;;;1035132;28;19908;-67
2022/10/08 02:46:08;;;;;;;;;;;16.70;99.90;;;;;;1035175;28;19909;-66
2022/10/08 02:46:40;;;;;;;;;;;16.70;99.90;;;;;;1035079;28;19964;-66
2022/10/08 02:47:14;;;;;;;;;;;16.70;99.90;;;;;;1035189;28;19906;-66
2022/10/08 02:47:46;;;;;;;;;;;16.70;99.90;;;;;;1034986;28;19909;-66
2022/10/08 02:48:28;;;;;;;;;;;16.70;99.90;;;;;;1035104;28;20487;-67
2022/10/08 02:49:05;;;;;;;;;;;16.70;99.90;;;;;;1035371;28;19992;-67
2022/10/08 02:49:38;;;;;;;;;;;16.70;99.90;;;;;;1034532;28;20504;-66
2022/10/08 02:50:10;;;;;;;;;;;16.60;99.90;;;;;;1030790;28;19901;-66
2022/10/08 02:50:41;;;;;;;;;;;16.60;99.90;;;;;;1030753;28;19905;-66
2022/10/08 02:51:14;;;;;;;;;;;16.60;99.90;;;;;;1030881;28;19913;-66
2022/10/08 02:51:48;;;;;;;;;;;16.70;99.90;;;;;;1033573;28;19944;-66
2022/10/08 02:52:19;;;;;;;;;;;16.60;99.90;;;;;;1034861;28;20007;-66
2022/10/08 02:52:50;;;;;;;;;;;16.70;99.90;;;;;;1030592;28;19905;-66
2022/10/08 02:53:21;;;;;;;;;;;16.60;99.90;;;;;;1031469;28;19996;-68
2022/10/08 02:53:52;;;;;;;;;;;16.60;99.90;;;;;;1034713;28;19910;-66
2022/10/08 02:54:23;;;;;;;;;;;16.60;99.90;;;;;;1034968;28;19928;-66
2022/10/08 02:54:54;;;;;;;;;;;16.60;99.90;;;;;;1034904;28;19988;-67
2022/10/08 02:55:28;;;;;;;;;;;16.60;99.90;;;;;;1035215;28;19913;-66
2022/10/08 02:55:58;;;;;;;;;;;16.60;99.90;;;;;;1035170;28;20033;-67
2022/10/08 02:56:34;;;;;;;;;;;16.60;99.90;;;;;;1034964;28;19906;-66
2022/10/08 02:57:20;;;;;;;;;;;16.60;99.90;;;;;;1035071;28;19996;-67
2022/10/08 02:57:55;;;;;;;;;;;16.60;99.90;;;;;;1034936;28;20497;-68
2022/10/08 02:58:25;;;;;;;;;;;16.60;99.90;;;;;;1035213;28;20337;-66
2022/10/08 02:58:56;;;;;;;;;;;16.60;99.90;;;;;;1034876;28;20319;-66
2022/10/08 02:59:26;;;;;;;;;;;16.60;99.90;;;;;;1035238;28;19916;-67
2022/10/08 02:59:57;;;;;;;;;;;16.60;99.90;;;;;;1035052;28;19902;-67
2022/10/08 03:00:33;;;;;;;;;;;16.60;99.90;;;;;;1035146;28;19922;-66
2022/10/08 03:01:03;;;;;;;;;;;16.60;99.90;;;;;;1034751;28;19912;-67
2022/10/08 03:01:42;;;;;;;;;;;16.60;99.90;;;;;;1034771;28;19912;-67
2022/10/08 03:02:26;;;;;;;;;;;16.60;99.90;;;;;;1034743;28;19905;-67
2022/10/08 03:03:23;;;;;;;;;;;16.60;99.90;;;;;;1034922;28;19912;-66
2022/10/08 03:04:02;;;;;;;;;;;16.60;99.90;;;;;;1030297;28;19939;-66
2022/10/08 03:05:00;;;;;;;;;;;16.60;99.90;;;;;;1032507;28;20583;-67
2022/10/08 03:05:30;;;;;;;;;;;16.60;99.90;;;;;;1032780;28;19909;-67
2022/10/08 03:06:02;;;;;;;;;;;16.60;99.90;;;;;;1034931;28;19905;-67
2022/10/08 03:06:34;;;;;;;;;;;16.60;99.90;;;;;;1034414;28;20299;-66
2022/10/08 03:07:05;;;;;;;;;;;16.60;99.90;;;;;;1034671;28;20051;-66
2022/10/08 03:07:36;;;;;;;;;;;16.60;99.90;;;;;;1034645;28;19905;-67
2022/10/08 03:08:07;;;;;;;;;;;16.60;99.90;;;;;;1034755;28;19948;-67
2022/10/08 03:08:42;;;;;;;;;;;16.60;99.90;;;;;;1034775;28;19924;-67
2022/10/08 03:09:13;;;;;;;;;;;16.60;99.90;;;;;;1034734;28;19906;-66
2022/10/08 03:09:45;;;;;;;;;;;16.60;99.90;;;;;;1035059;28;20776;-66
2022/10/08 03:10:16;;;;;;;;;;;16.60;99.90;;;;;;1035022;28;19916;-68
2022/10/08 03:10:47;;;;;;;;;;;16.60;99.90;;;;;;1035101;28;19948;-66
2022/10/08 03:11:18;;;;;;;;;;;16.60;99.90;;;;;;1035334;28;19915;-66
2022/10/08 03:11:48;;;;;;;;;;;16.60;99.90;;;;;;1034842;28;20068;-66
2022/10/08 03:12:19;;;;;;;;;;;16.60;99.90;;;;;;1035079;28;19921;-65
2022/10/08 03:12:50;;;;;;;;;;;16.60;99.90;;;;;;1037034;28;19909;-66
2022/10/08 03:13:20;;;;;;;;;;;16.60;99.90;;;;;;1038743;28;19940;-67
2022/10/08 03:13:52;;;;;;;;;;;16.60;99.90;;;;;;1035871;28;19909;-66
2022/10/08 03:14:23;;;;;;;;;;;16.60;99.90;;;;;;1035142;28;19956;-67
2022/10/08 03:14:53;;;;;;;;;;;16.60;99.90;;;;;;1035768;28;19909;-66
2022/10/08 03:15:24;;;;;;;;;;;16.60;99.90;;;;;;1035743;28;19909;-68
2022/10/08 03:15:55;;;;;;;;;;;16.60;99.90;;;;;;1035793;28;19915;-67
2022/10/08 03:16:30;;;;;;;;;;;16.60;99.90;;;;;;1036155;28;19906;-65
2022/10/08 03:17:00;;;;;;;;;;;16.60;99.90;;;;;;1035674;28;19960;-68
2022/10/08 03:17:34;;;;;;;;;;;16.60;99.90;;;;;;1035751;28;20044;-66
2022/10/08 03:18:07;;;;;;;;;;;16.60;99.90;;;;;;1035767;28;19909;-67
2022/10/08 03:18:37;;;;;;;;;;;16.60;99.90;;;;;;1035827;28;19910;-66
2022/10/08 03:19:09;;;;;;;;;;;16.60;99.90;;;;;;1035625;28;19909;-66
2022/10/08 03:19:40;;;;;;;;;;;16.60;99.90;;;;;;1035930;28;19945;-67
2022/10/08 03:20:11;;;;;;;;;;;16.50;99.90;;;;;;1035818;28;19909;-66
2022/10/08 03:20:44;;;;;;;;;;;16.60;99.90;;;;;;1035678;28;19909;-66